Hovedside
METAR-TAF:

METAR-TAF

Lufthavner :

Ålesund lufthavn. Vigra

Ålesund, Norge

breddegrad: 62-34N, lengdegrad: 006-07E, høyde over havet: 2 m

Gjeldene værobservasjon

Denne rapporten ble laget for 33 minutter siden, klokken 19:20 UTC
Vind 7 kt fra Sør
Temperatur 15°C
Luftfuktighet 88%
Trykk 1001 hPa
Sikt 10 km eller mer
Få skyer i en høyde av 1200 ft
Spredte skyer i en høyde av 1600 ft
Brutte skyer i en høyde av 6000 ft
lett regn, duskregn

METAR: ENAL 161920Z 17007KT 9999 -RADZ FEW012 SCT016 BKN060 15/13 Q1001

Tid: 21:53 (19:53 UTC)

Varsel

Denne rapporten ble laget for 2 timer og 53 minutter siden, klokken 17:00 UTC
Varsel gyldig fra 16. klokken 18 UTC til 16. klokken 22 UTC
Vind 7 kt fra Sørøst
Sikt 10 km eller mer
Få skyer i en høyde av 1200 ft
Brutte skyer i en høyde av 4500 ft
lette regnbyger
Blir
fra 16. klokken 19 UTC til 16. klokken 21 UTC
Vind 10 kt fra Sør-sørvest

TAF: ENAL 161700Z 1618/1622 13007KT 9999 -SHRA FEW012 BKN045 BECMG 1619/1621 20010KT

Værobservasjoner og værvarsel for over 4000 flyplasser (METAR- og TAF-rapporter).

Tilgjengelige stasjoner er representert av de røde og gule prikkene på kartet.

Hold musepekeren over prikken for å se navnet på stasjonen.

Klikk så for å se værobservasjoner og -varsler.

For å forandre kartet kan du klikke på den grønne knappen med svart kryss for å zoome inn, på den grønne knappen med strek for å zoome ut, eller på de grønne pilene for å se tilstøtende kart.


METAR-TAF: